createdAt,value
2018-11-12T00:01:09.551Z,6.93
2018-11-12T00:03:38.161Z,2.30
2018-11-12T00:06:06.783Z,4.00
2018-11-12T00:08:35.262Z,3.30
2018-11-12T00:11:03.701Z,1.73
2018-11-12T00:13:32.117Z,2.63
2018-11-12T00:16:00.488Z,3.93
2018-11-12T00:18:28.973Z,1.83
2018-11-12T00:20:57.345Z,2.77
2018-11-12T00:23:25.776Z,3.10
2018-11-12T00:25:54.226Z,2.80
2018-11-12T00:28:22.704Z,2.57
2018-11-12T00:30:51.150Z,4.10
2018-11-12T00:33:19.612Z,1.83
2018-11-12T00:35:48.011Z,2.20
2018-11-12T00:38:16.409Z,2.70
2018-11-12T00:40:44.820Z,2.20
2018-11-12T00:43:13.277Z,1.73
2018-11-12T00:45:41.670Z,3.13
2018-11-12T00:48:10.087Z,2.97
2018-11-12T00:50:38.485Z,4.27
2018-11-12T00:53:06.883Z,4.90
2018-11-12T00:55:35.349Z,2.30
2018-11-12T00:58:03.775Z,2.23
2018-11-12T01:00:32.186Z,3.33
2018-11-12T01:03:00.601Z,2.47
2018-11-12T01:05:29.026Z,4.20
2018-11-12T01:07:57.512Z,4.37
2018-11-12T01:10:25.947Z,3.30
2018-11-12T01:12:54.409Z,1.90
2018-11-12T01:15:22.847Z,1.87
2018-11-12T01:17:51.349Z,1.60
2018-11-12T01:20:19.768Z,1.63
2018-11-12T01:22:48.206Z,2.40
2018-11-12T01:25:16.749Z,1.83
2018-11-12T01:27:45.488Z,1.67
2018-11-12T01:30:15.277Z,1.70
2018-11-12T01:32:43.939Z,2.30
2018-11-12T01:35:13.452Z,1.40
2018-11-12T01:37:41.853Z,1.40
2018-11-12T01:40:11.446Z,1.10
2018-11-12T01:42:39.976Z,1.60
2018-11-12T01:45:10.461Z,3.67
2018-11-12T01:47:38.913Z,1.50
2018-11-12T01:50:08.861Z,3.63
2018-11-12T01:52:37.268Z,3.70
2018-11-12T01:55:06.842Z,2.90
2018-11-12T01:57:35.243Z,1.97
2018-11-12T02:00:03.822Z,2.23
2018-11-12T02:02:32.192Z,2.10
2018-11-12T02:05:00.755Z,2.00
2018-11-12T02:07:29.061Z,1.47
2018-11-12T02:09:57.528Z,3.13
2018-11-12T02:12:25.998Z,1.80
2018-11-12T02:14:54.437Z,1.30
2018-11-12T02:17:22.838Z,7.00
2018-11-12T02:19:51.253Z,2.83
2018-11-12T02:22:19.685Z,5.03
2018-11-12T02:24:48.076Z,3.73
2018-11-12T02:27:16.516Z,4.17
2018-11-12T02:29:44.938Z,1.40
2018-11-12T02:32:13.392Z,2.13
2018-11-12T02:34:41.819Z,1.50
2018-11-12T02:37:10.255Z,1.83
2018-11-12T02:39:38.682Z,1.97
2018-11-12T02:42:07.124Z,3.97
2018-11-12T02:44:35.561Z,3.83
2018-11-12T02:47:04.078Z,2.83
2018-11-12T02:49:32.501Z,2.53
2018-11-12T02:52:00.932Z,2.97
2018-11-12T02:54:29.324Z,2.40
2018-11-12T02:56:57.833Z,2.70
2018-11-12T02:59:26.304Z,3.63
2018-11-12T03:01:54.725Z,3.37
2018-11-12T03:04:23.181Z,2.00
2018-11-12T03:06:51.664Z,1.60
2018-11-12T03:09:20.071Z,2.23
2018-11-12T03:11:48.489Z,1.63
2018-11-12T03:14:16.884Z,3.27
2018-11-12T03:16:45.263Z,1.27
2018-11-12T03:19:13.686Z,4.77
2018-11-12T03:21:42.064Z,6.50
2018-11-12T03:24:10.483Z,2.90
2018-11-12T03:26:38.837Z,1.83
2018-11-12T03:29:07.301Z,1.70
2018-11-12T03:31:35.745Z,2.33
2018-11-12T03:34:04.125Z,5.20
2018-11-12T03:36:32.536Z,1.70
2018-11-12T03:39:00.893Z,1.83
2018-11-12T03:41:29.400Z,1.47
2018-11-12T03:43:57.788Z,1.93
2018-11-12T03:46:26.221Z,1.83
2018-11-12T03:48:54.608Z,2.83
2018-11-12T03:51:23.565Z,3.80
2018-11-12T03:53:52.025Z,2.97
2018-11-12T03:56:20.451Z,2.97
2018-11-12T03:58:48.808Z,4.30
2018-11-12T04:01:17.389Z,2.90
2018-11-12T04:03:45.780Z,1.80
2018-11-12T04:06:14.212Z,2.87
2018-11-12T04:08:42.593Z,3.57
2018-11-12T04:11:11.013Z,1.60
2018-11-12T04:13:39.423Z,2.90
2018-11-12T04:16:07.846Z,4.00
2018-11-12T04:18:36.273Z,2.00
2018-11-12T04:21:05.024Z,1.40
2018-11-12T04:23:33.498Z,2.60
2018-11-12T04:26:01.917Z,2.47
2018-11-12T04:28:30.379Z,1.90
2018-11-12T04:30:58.804Z,3.03
2018-11-12T04:33:27.213Z,2.10
2018-11-12T04:35:55.621Z,3.23
2018-11-12T04:38:24.012Z,1.67
2018-11-12T04:40:52.469Z,2.10
2018-11-12T04:43:20.917Z,2.77
2018-11-12T04:45:49.341Z,2.90
2018-11-12T04:48:17.768Z,2.17
2018-11-12T04:50:46.244Z,1.87
2018-11-12T04:53:14.657Z,4.97
2018-11-12T04:55:43.054Z,4.13
2018-11-12T04:58:11.447Z,3.53
2018-11-12T05:00:39.851Z,4.83
2018-11-12T05:03:08.284Z,1.40
2018-11-12T05:05:36.809Z,1.63
2018-11-12T05:08:05.376Z,4.80
2018-11-12T05:10:33.873Z,2.77
2018-11-12T05:13:02.293Z,2.20
2018-11-12T05:15:30.698Z,2.03
2018-11-12T05:17:59.126Z,1.83
2018-11-12T05:20:28.823Z,2.13
2018-11-12T05:22:57.267Z,6.60
2018-11-12T05:25:25.766Z,2.33
2018-11-12T05:27:54.482Z,3.70
2018-11-12T05:30:28.210Z,2.30
2018-11-12T05:32:57.206Z,2.30
2018-11-12T05:35:26.911Z,4.30
2018-11-12T05:37:55.452Z,3.17
2018-11-12T05:40:25.073Z,3.07
2018-11-12T05:42:53.529Z,3.23
2018-11-12T05:45:23.466Z,3.30
2018-11-12T05:47:51.997Z,4.83
2018-11-12T05:50:22.663Z,5.27
2018-11-12T05:52:52.316Z,2.73
2018-11-12T05:55:22.214Z,2.00
2018-11-12T05:57:50.632Z,2.10
2018-11-12T06:00:24.203Z,2.57
2018-11-12T06:02:52.608Z,3.60
2018-11-12T06:05:21.045Z,3.70
2018-11-12T06:07:49.476Z,3.50
2018-11-12T06:10:20.165Z,6.83
2018-11-12T06:12:49.818Z,3.87
2018-11-12T06:15:18.728Z,2.47
2018-11-12T06:17:47.945Z,3.00
2018-11-12T06:20:18.702Z,1.90
2018-11-12T06:22:47.318Z,2.47
2018-11-12T06:25:21.193Z,5.37
2018-11-12T06:27:50.081Z,3.20
2018-11-12T06:30:20.014Z,2.30
2018-11-12T06:32:48.604Z,7.17
2018-11-12T06:35:17.592Z,4.23
2018-11-12T06:37:46.873Z,2.50
2018-11-12T06:40:16.531Z,3.53
2018-11-12T06:42:45.264Z,3.40
2018-11-12T06:45:21.921Z,2.73
2018-11-12T06:47:51.309Z,1.90
2018-11-12T06:50:22.104Z,4.77
2018-11-12T06:52:50.570Z,2.23
2018-11-12T06:55:20.357Z,4.63
2018-11-12T06:57:49.218Z,1.77
2018-11-12T07:00:24.036Z,6.63
2018-11-12T07:02:52.544Z,2.70
2018-11-12T07:05:21.362Z,4.43
2018-11-12T07:07:49.936Z,5.80
2018-11-12T07:10:19.708Z,7.87
2018-11-12T07:12:48.891Z,5.00
2018-11-12T07:15:18.848Z,6.43
2018-11-12T07:17:47.260Z,8.00
2018-11-12T07:20:18.213Z,8.70
2018-11-12T07:22:46.801Z,6.70
2018-11-12T07:25:16.267Z,5.70
2018-11-12T07:27:44.677Z,5.50
2018-11-12T07:30:16.537Z,17.80
2018-11-12T07:32:45.567Z,8.27
2018-11-12T07:35:14.944Z,6.80
2018-11-12T07:37:44.589Z,7.13
2018-11-12T07:40:13.865Z,3.93
2018-11-12T07:42:42.668Z,4.93
2018-11-12T07:45:19.578Z,11.80
2018-11-12T07:47:49.911Z,6.00
2018-11-12T07:50:19.642Z,10.00
2018-11-12T07:52:48.070Z,98.27
2018-11-12T07:55:19.556Z,12.97
2018-11-12T07:57:49.094Z,6.47
2018-11-12T08:00:21.535Z,6.57
2018-11-12T08:02:50.938Z,4.00
2018-11-12T08:05:19.347Z,4.17
2018-11-12T08:07:47.748Z,5.30
2018-11-12T08:10:17.529Z,2.83
2018-11-12T08:12:46.312Z,3.40
2018-11-12T08:15:16.794Z,7.07
2018-11-12T08:17:45.288Z,3.50
2018-11-12T08:20:15.978Z,4.97
2018-11-12T08:22:45.675Z,3.83
2018-11-12T08:25:14.245Z,4.43
2018-11-12T08:27:43.359Z,3.53
2018-11-12T08:30:16.026Z,5.77
2018-11-12T08:32:45.457Z,6.03
2018-11-12T08:35:14.348Z,8.93
2018-11-12T08:37:43.009Z,8.80
2018-11-12T08:40:13.132Z,5.80
2018-11-12T08:42:41.924Z,8.80
2018-11-12T08:45:13.580Z,6.70
2018-11-12T08:47:43.449Z,16.97
2018-11-12T08:50:14.127Z,7.07
2018-11-12T08:52:43.721Z,7.50
2018-11-12T08:55:13.955Z,6.33
2018-11-12T08:57:43.905Z,12.63
2018-11-12T09:00:12.967Z,9.63
2018-11-12T09:02:41.743Z,7.63
2018-11-12T09:05:11.658Z,6.00
2018-11-12T09:07:41.282Z,7.67
2018-11-12T09:10:11.763Z,4.33
2018-11-12T09:12:40.879Z,7.43
2018-11-12T09:15:10.184Z,6.10
2018-11-12T09:17:39.501Z,8.23
2018-11-12T09:20:09.339Z,7.43
2018-11-12T09:22:38.033Z,10.43
2018-11-12T09:25:08.633Z,7.70
2018-11-12T09:27:37.138Z,12.40
2018-11-12T09:30:08.304Z,6.50
2018-11-12T09:32:36.746Z,7.40
2018-11-12T09:35:06.013Z,7.37
2018-11-12T09:40:02.896Z,5.73
2018-11-12T09:42:31.391Z,6.63
2018-11-12T09:44:59.864Z,9.80
2018-11-12T09:47:28.302Z,8.53
2018-11-12T09:49:56.835Z,7.00
2018-11-12T09:52:25.270Z,10.37
2018-11-12T09:54:53.718Z,9.03
2018-11-12T09:57:22.113Z,9.00
2018-11-12T09:59:50.543Z,7.63
2018-11-12T10:02:19.579Z,6.10
2018-11-12T10:04:48.642Z,13.50
2018-11-12T10:07:17.372Z,23.03
2018-11-12T10:09:46.710Z,5.03
2018-11-12T10:12:14.880Z,11.70
2018-11-12T10:14:44.008Z,4.50
2018-11-12T10:17:13.161Z,6.47
2018-11-12T10:19:38.319Z,6.93
2018-11-12T10:22:06.721Z,11.00
2018-11-12T10:24:35.213Z,7.93
2018-11-12T10:27:03.672Z,17.10
2018-11-12T10:29:32.085Z,11.30
2018-11-12T10:32:00.614Z,10.30
2018-11-12T10:34:29.034Z,5.70
2018-11-12T10:36:57.530Z,5.50
2018-11-12T10:39:25.945Z,6.40
2018-11-12T10:41:54.400Z,12.10
2018-11-12T10:44:22.843Z,13.57
2018-11-12T10:46:51.238Z,17.40
2018-11-12T10:49:19.685Z,6.43
2018-11-12T10:51:48.116Z,7.47
2018-11-12T10:54:16.667Z,5.53
2018-11-12T10:56:45.687Z,14.00
2018-11-12T10:59:14.073Z,14.93
2018-11-12T11:01:47.775Z,11.53
2018-11-12T11:04:21.498Z,5.13
2018-11-12T11:06:49.893Z,5.87
2018-11-12T11:09:18.310Z,10.80
2018-11-12T11:11:46.743Z,7.20
2018-11-12T11:14:15.174Z,8.30
2018-11-12T11:16:43.679Z,9.83
2018-11-12T11:19:12.080Z,7.37
2018-11-12T11:21:40.500Z,5.90
2018-11-12T11:24:08.923Z,8.87
2018-11-12T11:26:37.453Z,7.27
2018-11-12T11:29:06.157Z,7.70
2018-11-12T11:31:34.629Z,6.10
2018-11-12T11:34:03.115Z,6.13
2018-11-12T11:36:31.583Z,10.03
2018-11-12T11:39:00.029Z,5.33
2018-11-12T11:41:28.463Z,6.90
2018-11-12T11:43:56.976Z,7.23
2018-11-12T11:46:25.388Z,9.93
2018-11-12T11:48:53.877Z,6.33
2018-11-12T11:51:22.270Z,6.00
2018-11-12T11:53:50.688Z,8.10
2018-11-12T11:56:19.123Z,9.50
2018-11-12T11:58:47.579Z,6.07
2018-11-12T12:01:15.996Z,8.10
2018-11-12T12:03:44.405Z,10.17
2018-11-12T12:06:12.843Z,7.80
2018-11-12T12:08:41.347Z,8.90
2018-11-12T12:11:09.756Z,11.43
2018-11-12T12:13:38.172Z,10.63
2018-11-12T12:16:06.698Z,8.53
2018-11-12T12:18:35.140Z,17.20
2018-11-12T12:21:03.797Z,13.37
2018-11-12T12:23:32.180Z,10.80
2018-11-12T12:26:00.672Z,14.33
2018-11-12T12:28:29.083Z,14.93
2018-11-12T12:30:57.564Z,7.90
2018-11-12T12:33:26.019Z,13.40
2018-11-12T12:35:54.576Z,12.63
2018-11-12T12:38:22.943Z,6.40
2018-11-12T12:40:51.389Z,12.77
2018-11-12T12:43:19.810Z,8.43
2018-11-12T12:45:48.411Z,7.00
2018-11-12T12:48:16.688Z,11.03
2018-11-12T12:50:45.099Z,7.37
2018-11-12T12:53:13.564Z,7.53
2018-11-12T12:55:42.140Z,9.10
2018-11-12T12:58:10.644Z,6.90
2018-11-12T13:00:39.130Z,8.53
2018-11-12T13:03:07.573Z,15.87
2018-11-12T13:05:36.064Z,8.27
2018-11-12T13:08:04.630Z,12.20
2018-11-12T13:10:33.052Z,11.30
2018-11-12T13:13:01.505Z,13.17
2018-11-12T13:15:29.982Z,11.90
2018-11-12T13:17:58.457Z,17.07
2018-11-12T13:20:26.961Z,12.70
2018-11-12T13:22:55.426Z,15.03
2018-11-12T13:25:23.876Z,18.50
2018-11-12T13:27:52.923Z,10.20
2018-11-12T13:30:22.611Z,12.67
2018-11-12T13:32:51.267Z,13.90
2018-11-12T13:35:25.081Z,12.93
2018-11-12T13:37:53.604Z,7.60
2018-11-12T13:40:23.386Z,12.93
2018-11-12T13:42:57.293Z,11.10
2018-11-12T13:45:26.296Z,12.23
2018-11-12T13:47:55.143Z,9.53
2018-11-12T13:50:25.055Z,9.93
2018-11-12T13:52:53.949Z,9.90
2018-11-12T13:55:23.427Z,14.67
2018-11-12T13:57:51.980Z,12.60
2018-11-12T14:00:22.100Z,17.23
2018-11-12T14:02:51.269Z,21.30
2018-11-12T14:05:20.973Z,27.10
2018-11-12T14:07:49.517Z,31.83
2018-11-12T14:10:20.496Z,27.30
2018-11-12T14:12:49.681Z,34.50
2018-11-12T14:15:19.877Z,37.60
2018-11-12T14:17:49.005Z,31.53
2018-11-12T14:20:17.682Z,33.00
2018-11-12T14:22:46.089Z,34.53
2018-11-12T14:25:15.720Z,37.70
2018-11-12T14:27:44.914Z,40.50
2018-11-12T14:30:14.990Z,38.70
2018-11-12T14:32:43.582Z,34.63
2018-11-12T14:35:12.755Z,37.13
2018-11-12T14:37:42.094Z,33.90
2018-11-12T14:40:11.846Z,39.57
2018-11-12T14:42:40.464Z,34.90
2018-11-12T14:45:11.004Z,39.63
2018-11-12T14:47:39.468Z,35.00
2018-11-12T14:50:08.073Z,30.13
2018-11-12T14:52:36.589Z,38.37
2018-11-12T14:55:06.151Z,32.23
2018-11-12T14:57:34.629Z,34.40
2018-11-12T15:00:03.277Z,31.37
2018-11-12T15:02:31.718Z,30.83
2018-11-12T15:05:00.199Z,28.03
2018-11-12T15:07:28.645Z,27.87
2018-11-12T15:09:57.044Z,26.00
2018-11-12T15:12:25.514Z,25.50
2018-11-12T15:14:53.981Z,28.30
2018-11-12T15:17:22.398Z,30.53
2018-11-12T15:19:50.860Z,27.37
2018-11-12T15:22:19.360Z,21.37
2018-11-12T15:24:47.813Z,19.97
2018-11-12T15:27:16.269Z,18.10
2018-11-12T15:29:44.693Z,22.43
2018-11-12T15:32:13.146Z,17.37
2018-11-12T15:34:42.262Z,18.43
2018-11-12T15:37:10.921Z,18.20
2018-11-12T15:39:39.240Z,13.37
2018-11-12T15:42:07.870Z,16.70
2018-11-12T15:44:36.340Z,11.27
2018-11-12T15:47:04.898Z,14.47
2018-11-12T15:49:33.425Z,20.97
2018-11-12T15:52:01.923Z,13.10
2018-11-12T15:54:30.398Z,11.33
2018-11-12T15:56:58.926Z,16.33
2018-11-12T15:59:27.328Z,11.80
2018-11-12T16:01:56.365Z,10.33
2018-11-12T16:04:24.804Z,8.23
2018-11-12T16:06:53.282Z,7.77
2018-11-12T16:09:21.760Z,7.23
2018-11-12T16:11:50.229Z,17.83
2018-11-12T16:14:18.633Z,15.27
2018-11-12T16:16:47.145Z,10.83
2018-11-12T16:19:15.632Z,13.77
2018-11-12T16:21:44.079Z,10.80
2018-11-12T16:24:12.570Z,16.50
2018-11-12T16:26:41.148Z,12.20
2018-11-12T16:29:09.589Z,10.50
2018-11-12T16:31:38.028Z,11.70
2018-11-12T16:34:06.465Z,10.70
2018-11-12T16:36:34.881Z,9.40
2018-11-12T16:39:03.521Z,11.00
2018-11-12T16:41:31.966Z,9.93
2018-11-12T16:44:00.536Z,12.30
2018-11-12T16:46:28.985Z,9.10
2018-11-12T16:48:57.418Z,12.07
2018-11-12T16:51:25.866Z,11.70
2018-11-12T16:53:54.327Z,11.40
2018-11-12T16:56:22.824Z,13.30
2018-11-12T16:58:51.218Z,18.43
2018-11-12T17:01:19.666Z,11.57
2018-11-12T17:03:48.064Z,14.00
2018-11-12T17:06:16.508Z,13.80
2018-11-12T17:08:45.908Z,13.20
2018-11-12T17:11:14.397Z,16.57
2018-11-12T17:13:42.923Z,13.90
2018-11-12T17:16:11.563Z,15.03
2018-11-12T17:18:40.135Z,16.33
2018-11-12T17:21:08.560Z,14.53
2018-11-12T17:23:37.017Z,14.30
2018-11-12T17:26:05.515Z,14.33
2018-11-12T17:28:33.961Z,14.23
2018-11-12T17:31:02.589Z,15.40
2018-11-12T17:33:30.939Z,17.43
2018-11-12T17:35:59.431Z,13.47
2018-11-12T17:38:28.027Z,15.90
2018-11-12T17:40:56.502Z,17.00
2018-11-12T17:43:24.999Z,15.87
2018-11-12T17:45:53.460Z,17.23
2018-11-12T17:48:21.935Z,17.00
2018-11-12T17:50:50.453Z,17.53
2018-11-12T17:53:18.925Z,17.40
2018-11-12T17:55:47.384Z,20.33
2018-11-12T17:58:15.841Z,19.77
2018-11-12T18:00:44.319Z,20.93
2018-11-12T18:03:12.752Z,20.17
2018-11-12T18:05:41.256Z,23.03
2018-11-12T18:08:09.888Z,24.67
2018-11-12T18:10:38.309Z,26.47
2018-11-12T18:13:06.828Z,23.87
2018-11-12T18:15:35.306Z,25.40
2018-11-12T18:18:03.828Z,26.90
2018-11-12T18:20:32.265Z,25.70
2018-11-12T18:23:00.746Z,28.57
2018-11-12T18:25:29.187Z,25.40
2018-11-12T18:27:57.704Z,27.13
2018-11-12T18:30:27.753Z,28.70
2018-11-12T18:32:57.122Z,26.17
2018-11-12T18:35:25.614Z,25.17
2018-11-12T18:37:54.100Z,27.23
2018-11-12T18:40:23.995Z,26.30
2018-11-12T18:42:52.533Z,27.03
2018-11-12T18:45:22.165Z,23.20
2018-11-12T18:47:50.644Z,24.40
2018-11-12T18:50:34.549Z,25.93
2018-11-12T18:53:03.024Z,25.90
2018-11-12T18:55:31.542Z,23.23
2018-11-12T18:58:00.259Z,23.33
2018-11-12T19:00:29.317Z,28.60
2018-11-12T19:02:57.896Z,24.33
2018-11-12T19:05:28.035Z,29.63
2018-11-12T19:07:58.101Z,26.33
2018-11-12T19:10:28.202Z,28.67
2018-11-12T19:12:56.689Z,28.57
2018-11-12T19:15:27.655Z,26.97
2018-11-12T19:17:58.772Z,28.30
2018-11-12T19:20:27.253Z,30.10
2018-11-12T19:22:55.897Z,28.17
2018-11-12T19:25:24.666Z,23.73
2018-11-12T19:27:53.202Z,24.20
2018-11-12T19:30:22.956Z,27.80
2018-11-12T19:32:51.423Z,28.20
2018-11-12T19:35:21.387Z,28.13
2018-11-12T19:37:49.872Z,28.37
2018-11-12T19:40:19.566Z,26.13
2018-11-12T19:42:49.165Z,29.70
2018-11-12T19:45:17.726Z,29.17
2018-11-12T19:47:47.416Z,26.47
2018-11-12T19:50:17.166Z,29.90
2018-11-12T19:52:46.797Z,24.73
2018-11-12T19:55:15.566Z,27.90
2018-11-12T19:57:44.441Z,27.30
2018-11-12T20:00:15.144Z,28.40
2018-11-12T20:02:44.584Z,29.60
2018-11-12T20:05:13.120Z,24.90
2018-11-12T20:07:42.162Z,27.27
2018-11-12T20:10:13.351Z,26.40
2018-11-12T20:12:41.916Z,23.10
2018-11-12T20:15:11.540Z,29.70
2018-11-12T20:17:40.848Z,25.73
2018-11-12T20:20:11.715Z,28.10
2018-11-12T20:22:40.237Z,27.40
2018-11-12T20:25:09.633Z,29.93
2018-11-12T20:27:38.077Z,22.27
2018-11-12T20:30:13.441Z,29.63
2018-11-12T20:32:41.901Z,26.80
2018-11-12T20:35:10.512Z,24.03
2018-11-12T20:37:39.263Z,25.43
2018-11-12T20:40:08.589Z,28.60
2018-11-12T20:42:37.072Z,24.40
2018-11-12T20:45:07.258Z,25.27
2018-11-12T20:47:35.691Z,23.50
2018-11-12T20:50:04.254Z,28.97
2018-11-12T20:52:32.894Z,25.80
2018-11-12T20:55:01.383Z,25.10
2018-11-12T20:57:29.859Z,24.20
2018-11-12T20:59:58.286Z,24.97
2018-11-12T21:02:26.862Z,24.37
2018-11-12T21:04:55.769Z,23.93
2018-11-12T21:07:24.257Z,21.60
2018-11-12T21:09:52.738Z,23.50
2018-11-12T21:12:21.308Z,31.10
2018-11-12T21:14:49.742Z,26.10
2018-11-12T21:17:18.190Z,20.07
2018-11-12T21:19:46.649Z,24.50
2018-11-12T21:22:15.617Z,22.77
2018-11-12T21:24:44.426Z,25.93
2018-11-12T21:27:12.967Z,24.63
2018-11-12T21:29:41.530Z,29.17
2018-11-12T21:32:10.050Z,55.00
2018-11-12T21:34:38.495Z,28.10
2018-11-12T21:37:07.137Z,24.80
2018-11-12T21:39:35.516Z,23.50
2018-11-12T21:42:04.070Z,24.30
2018-11-12T21:44:32.483Z,23.20
2018-11-12T21:47:00.925Z,25.00
2018-11-12T21:49:29.477Z,28.83
2018-11-12T21:51:57.884Z,26.30
2018-11-12T21:54:26.367Z,47.77
2018-11-12T21:56:54.857Z,31.83
2018-11-12T21:59:23.345Z,30.30
2018-11-12T22:01:51.734Z,28.60
2018-11-12T22:04:20.213Z,25.83
2018-11-12T22:06:48.773Z,27.93
2018-11-12T22:09:17.177Z,24.97
2018-11-12T22:11:45.626Z,30.53
2018-11-12T22:14:14.090Z,26.07
2018-11-12T22:16:42.516Z,26.30
2018-11-12T22:19:10.978Z,32.07
2018-11-12T22:21:39.367Z,23.90
2018-11-12T22:24:07.849Z,28.33
2018-11-12T22:26:36.267Z,23.90
2018-11-12T22:29:04.689Z,31.27
2018-11-12T22:31:33.122Z,24.63
2018-11-12T22:34:01.603Z,29.90
2018-11-12T22:36:30.068Z,27.63
2018-11-12T22:38:58.534Z,26.03
2018-11-12T22:41:27.276Z,25.47
2018-11-12T22:43:55.961Z,26.27
2018-11-12T22:46:24.399Z,26.87
2018-11-12T22:48:52.872Z,28.67
2018-11-12T22:51:21.371Z,27.23
2018-11-12T22:53:49.904Z,27.03
2018-11-12T22:56:18.336Z,30.17
2018-11-12T22:58:46.778Z,26.63
2018-11-12T23:01:15.231Z,26.30
2018-11-12T23:03:43.756Z,26.30
2018-11-12T23:06:13.160Z,25.57
2018-11-12T23:08:42.527Z,29.27
2018-11-12T23:11:11.105Z,31.07
2018-11-12T23:13:41.787Z,27.80
2018-11-12T23:16:10.221Z,30.70
2018-11-12T23:18:38.613Z,29.60
2018-11-12T23:21:07.090Z,28.00
2018-11-12T23:23:35.720Z,32.17
2018-11-12T23:26:04.194Z,32.83
2018-11-12T23:28:32.665Z,33.80
2018-11-12T23:31:01.080Z,29.27
2018-11-12T23:33:29.716Z,27.80
2018-11-12T23:35:58.196Z,26.00
2018-11-12T23:38:26.625Z,27.70
2018-11-12T23:40:55.065Z,27.97
2018-11-12T23:43:23.488Z,28.40
2018-11-12T23:45:51.927Z,30.63
2018-11-12T23:48:20.402Z,27.63
2018-11-12T23:50:48.846Z,30.77
2018-11-12T23:53:17.212Z,25.80
2018-11-12T23:55:45.682Z,27.60
2018-11-12T23:58:14.135Z,26.83
